createdAt,value
2022-10-19T04:04:49.407Z,32.28
2022-10-19T04:09:02.016Z,29.30
2022-10-19T04:13:13.518Z,33.78
2022-10-19T04:17:25.567Z,33.08
2022-10-19T04:21:38.362Z,31.92
2022-10-19T04:25:50.198Z,36.88
2022-10-19T04:30:01.731Z,28.67
2022-10-19T04:34:13.264Z,32.20
2022-10-19T04:38:24.764Z,29.55
2022-10-19T04:42:36.289Z,27.77
2022-10-19T04:46:47.783Z,33.22
2022-10-19T04:50:59.467Z,29.67
2022-10-19T04:55:10.968Z,24.60
2022-10-19T04:59:22.483Z,29.85
2022-10-19T05:03:33.988Z,24.60
2022-10-19T05:07:45.503Z,25.17
2022-10-19T05:11:57.083Z,22.80
2022-10-19T05:16:12.036Z,24.60
2022-10-19T05:20:24.174Z,19.45
2022-10-19T05:24:35.680Z,20.85
2022-10-19T05:28:56.131Z,27.33
2022-10-19T05:33:07.722Z,24.80
2022-10-19T05:37:19.367Z,22.67
2022-10-19T05:41:31.103Z,25.67
2022-10-19T05:45:42.688Z,27.00
2022-10-19T05:49:54.221Z,29.15
2022-10-19T05:54:05.840Z,29.10
2022-10-19T05:58:17.330Z,31.55
2022-10-19T06:02:28.847Z,31.05
2022-10-19T06:06:41.455Z,34.50
2022-10-19T06:10:53.033Z,35.78
2022-10-19T06:15:04.696Z,35.53
2022-10-19T06:19:16.205Z,29.38
2022-10-19T06:23:27.888Z,31.75
2022-10-19T06:27:39.587Z,32.38
2022-10-19T06:31:52.136Z,29.70
2022-10-19T06:36:15.908Z,33.47
2022-10-19T06:40:27.754Z,29.15
2022-10-19T06:44:39.449Z,31.35
2022-10-19T06:48:57.084Z,31.75
2022-10-19T06:53:08.741Z,28.45
2022-10-19T06:57:20.318Z,29.52
2022-10-19T07:01:31.837Z,31.20
2022-10-19T07:05:43.348Z,29.67
2022-10-19T07:09:54.884Z,29.17
2022-10-19T07:14:06.386Z,28.52
2022-10-19T07:18:17.907Z,30.40
2022-10-19T07:22:29.449Z,27.63
2022-10-19T07:26:40.953Z,29.02
2022-10-19T07:30:52.483Z,30.90
2022-10-19T07:35:04.345Z,28.58
2022-10-19T07:39:19.302Z,25.08
2022-10-19T07:43:30.984Z,29.42
2022-10-19T07:47:42.599Z,26.05
2022-10-19T07:51:55.039Z,28.75
2022-10-19T07:56:15.503Z,26.27
2022-10-19T08:00:27.130Z,23.58
2022-10-19T08:09:18.885Z,29.10
2022-10-19T08:13:40.398Z,26.55
2022-10-19T08:17:51.886Z,30.65
2022-10-19T08:22:03.407Z,24.65
2022-10-19T08:26:14.946Z,24.55
2022-10-19T08:30:26.485Z,31.98
2022-10-19T08:34:38.014Z,32.83
2022-10-19T08:38:50.172Z,23.05
2022-10-19T08:43:20.379Z,25.45
2022-10-19T08:47:57.106Z,22.45
2022-10-19T08:52:20.287Z,21.63
2022-10-19T08:56:50.659Z,18.60
2022-10-19T09:01:25.223Z,17.98
2022-10-19T09:06:02.508Z,20.58
2022-10-19T09:10:14.593Z,17.85
2022-10-19T09:14:32.516Z,16.70
2022-10-19T09:18:46.830Z,15.35
2022-10-19T09:23:27.420Z,17.15
2022-10-19T09:27:41.327Z,16.70
2022-10-19T09:36:22.560Z,16.88
2022-10-19T09:40:39.124Z,13.45
2022-10-19T09:44:51.965Z,15.07
2022-10-19T09:49:05.005Z,18.85
2022-10-19T09:53:21.635Z,14.25
2022-10-19T09:57:33.491Z,15.02
2022-10-19T10:01:45.380Z,14.88
2022-10-19T10:06:05.758Z,12.05
2022-10-19T10:10:28.256Z,13.48
2022-10-19T10:14:49.907Z,11.35
2022-10-19T10:19:07.688Z,11.45
2022-10-19T10:23:29.073Z,10.82
2022-10-19T10:27:40.590Z,10.48
2022-10-19T10:32:00.214Z,9.95
2022-10-19T10:36:12.558Z,8.48
2022-10-19T10:40:28.017Z,11.90
2022-10-19T10:44:47.745Z,7.57
2022-10-19T10:49:03.039Z,9.40
2022-10-19T10:53:43.996Z,8.57
2022-10-19T10:58:17.908Z,8.55
2022-10-19T11:03:08.019Z,6.25
2022-10-19T11:07:26.482Z,7.82
2022-10-19T11:11:46.379Z,7.78
2022-10-19T11:15:57.840Z,9.18
2022-10-19T11:20:16.136Z,10.23
2022-10-19T11:25:10.782Z,9.05
2022-10-19T11:29:38.319Z,9.15
2022-10-19T11:34:21.218Z,8.48
2022-10-19T11:38:53.973Z,8.80
2022-10-19T11:43:27.211Z,8.38
2022-10-19T11:47:55.622Z,7.35
2022-10-19T11:52:10.101Z,10.30
2022-10-19T11:56:39.297Z,9.23
2022-10-19T12:01:00.403Z,9.38
2022-10-19T12:05:42.711Z,8.55
2022-10-19T12:10:14.113Z,8.32
2022-10-19T12:14:31.780Z,9.57
2022-10-19T12:18:49.184Z,9.70
2022-10-19T12:23:06.206Z,10.60
2022-10-19T12:27:35.714Z,11.50
2022-10-19T12:31:49.099Z,9.68
2022-10-19T12:36:12.643Z,10.00
2022-10-19T12:40:33.987Z,10.55
2022-10-19T12:45:23.039Z,10.63
2022-10-19T12:49:46.026Z,9.35
2022-10-19T12:54:09.397Z,12.95
2022-10-19T12:58:22.837Z,10.90
2022-10-19T13:02:36.622Z,11.50
2022-10-19T13:07:09.082Z,10.48
2022-10-19T13:11:21.511Z,8.75
2022-10-19T13:15:36.015Z,10.85
2022-10-19T13:19:47.524Z,11.05
2022-10-19T13:24:30.086Z,11.73
2022-10-19T13:28:57.456Z,12.52
2022-10-19T13:33:27.470Z,12.18
2022-10-19T13:37:39.169Z,11.98
2022-10-19T13:41:52.332Z,12.30
2022-10-19T13:46:16.956Z,13.45
2022-10-19T13:50:54.145Z,9.95
2022-10-19T13:55:20.832Z,10.30
2022-10-19T13:59:54.775Z,7.85
2022-10-19T14:04:15.338Z,8.38
2022-10-19T14:08:59.851Z,6.20
2022-10-19T14:13:14.647Z,4.85
2022-10-19T14:17:33.887Z,6.65
2022-10-19T14:21:45.982Z,5.07
2022-10-19T14:26:01.620Z,6.47
2022-10-19T14:30:23.221Z,4.00
2022-10-19T14:34:40.215Z,4.57
2022-10-19T14:38:55.944Z,5.25
2022-10-19T14:43:26.431Z,3.78
2022-10-19T14:47:58.096Z,5.32
2022-10-19T14:52:18.065Z,4.75
2022-10-19T14:56:51.340Z,3.95
2022-10-19T15:01:03.007Z,3.72
2022-10-19T15:05:24.204Z,4.72
2022-10-19T15:09:47.916Z,3.83
2022-10-19T15:14:14.880Z,3.35
2022-10-19T15:18:48.154Z,3.35
2022-10-19T15:23:02.444Z,2.40
2022-10-19T15:27:20.583Z,3.70
2022-10-19T15:31:32.087Z,2.92
2022-10-19T15:35:44.553Z,5.25
2022-10-19T15:39:56.419Z,3.53
2022-10-19T15:44:32.039Z,2.55
2022-10-19T15:48:52.302Z,3.70
2022-10-19T15:53:06.657Z,3.25
2022-10-19T15:57:40.475Z,2.20
2022-10-19T16:01:54.966Z,2.55
2022-10-19T16:06:08.403Z,2.50
2022-10-19T16:10:25.497Z,3.00
2022-10-19T16:14:37.653Z,2.40
2022-10-19T16:18:49.497Z,2.95
2022-10-19T16:23:01.043Z,2.58
2022-10-19T16:27:16.243Z,4.57
2022-10-19T16:31:27.977Z,2.28
2022-10-19T16:35:39.548Z,3.47
2022-10-19T16:39:51.051Z,3.97
2022-10-19T16:44:02.698Z,3.67
2022-10-19T16:48:14.225Z,4.85
2022-10-19T16:52:27.085Z,3.33
2022-10-19T16:56:46.316Z,3.33
2022-10-19T17:01:01.321Z,4.25
2022-10-19T17:05:12.884Z,3.97
2022-10-19T17:13:59.322Z,3.80
2022-10-19T17:18:11.037Z,4.40
2022-10-19T17:22:22.572Z,7.20
2022-10-19T17:26:45.135Z,5.97
2022-10-19T17:30:57.785Z,6.07
2022-10-19T17:35:09.408Z,8.43
2022-10-19T17:39:25.663Z,8.45
2022-10-19T17:43:43.219Z,8.68
2022-10-19T17:47:56.034Z,10.65
2022-10-19T17:52:07.518Z,9.60
2022-10-19T17:56:20.760Z,12.60
2022-10-19T18:00:32.244Z,11.07
2022-10-19T18:04:43.736Z,12.27
2022-10-19T18:08:56.695Z,12.68
2022-10-19T18:13:09.143Z,9.95
2022-10-19T18:17:24.048Z,9.55
2022-10-19T18:21:40.977Z,13.20
2022-10-19T18:25:54.358Z,10.95
2022-10-19T18:30:06.527Z,9.13
2022-10-19T18:34:21.240Z,11.18
2022-10-19T18:38:32.837Z,12.93
2022-10-19T18:42:44.532Z,11.15
2022-10-19T18:46:57.162Z,13.57
2022-10-19T18:51:08.723Z,10.85
2022-10-19T18:55:20.274Z,10.85
2022-10-19T18:59:31.771Z,10.32
2022-10-19T19:03:45.443Z,10.82
2022-10-19T19:07:57.104Z,13.73
2022-10-19T19:12:08.821Z,10.05
2022-10-19T19:16:21.122Z,16.23
2022-10-19T19:20:32.823Z,11.50
2022-10-19T19:24:44.419Z,9.60
2022-10-19T19:28:57.254Z,10.73
2022-10-19T19:33:09.155Z,12.93
2022-10-19T19:37:20.720Z,11.48
2022-10-19T19:41:34.027Z,12.07
2022-10-19T19:45:56.732Z,10.82
2022-10-19T19:50:08.805Z,10.05
2022-10-19T19:54:21.331Z,12.98
2022-10-19T19:58:32.852Z,12.95
2022-10-19T20:02:44.619Z,10.23
2022-10-19T20:06:56.140Z,12.82
2022-10-19T20:11:10.106Z,11.82
2022-10-19T20:15:21.892Z,11.50
2022-10-19T20:19:33.402Z,10.23
2022-10-19T20:23:46.355Z,13.57
2022-10-19T20:27:57.866Z,12.00
2022-10-19T20:32:09.402Z,13.45
2022-10-19T20:36:24.040Z,11.85
2022-10-19T20:40:37.623Z,13.18
2022-10-19T20:44:49.168Z,12.20
2022-10-19T20:49:02.956Z,12.20
2022-10-19T20:53:14.463Z,15.73
2022-10-19T20:57:25.991Z,12.85
2022-10-19T21:01:39.389Z,13.50
2022-10-19T21:05:50.924Z,13.68
2022-10-19T21:10:02.550Z,16.30
2022-10-19T21:14:22.442Z,16.65
2022-10-19T21:18:37.307Z,13.63
2022-10-19T21:22:48.822Z,15.18
2022-10-19T21:27:01.618Z,17.27
